createdAt,value
2023-02-23T00:02:14.436Z,88.24
2023-02-23T00:07:20.390Z,87.79
2023-02-23T00:12:24.357Z,87.36
2023-02-23T00:17:27.097Z,87.21
2023-02-23T00:22:29.871Z,87.34
2023-02-23T00:27:32.740Z,87.00
2023-02-23T00:32:35.626Z,86.88
2023-02-23T00:37:38.356Z,86.30
2023-02-23T00:42:41.261Z,86.51
2023-02-23T00:47:44.998Z,86.25
2023-02-23T00:52:49.286Z,86.26
2023-02-23T00:57:51.894Z,86.40
2023-02-23T01:02:54.612Z,86.00
2023-02-23T01:07:57.282Z,86.66
2023-02-23T01:13:00.036Z,86.67
2023-02-23T01:18:02.897Z,86.42
2023-02-23T01:23:07.793Z,86.37
2023-02-23T01:28:11.709Z,86.31
2023-02-23T01:33:14.423Z,86.69
2023-02-23T01:38:17.098Z,86.58
2023-02-23T01:43:26.356Z,86.58
2023-02-23T01:48:36.917Z,86.57
2023-02-23T01:53:43.660Z,87.14
2023-02-23T01:58:48.168Z,87.40
2023-02-23T02:03:57.636Z,87.71
2023-02-23T02:09:06.984Z,87.59
2023-02-23T02:14:13.569Z,86.98
2023-02-23T02:19:41.824Z,86.22
2023-02-23T02:25:02.814Z,85.90
2023-02-23T02:30:16.140Z,85.62
2023-02-23T02:35:40.242Z,84.28
2023-02-23T02:40:53.675Z,83.42
2023-02-23T02:46:02.701Z,83.24
2023-02-23T02:51:32.180Z,82.50
2023-02-23T02:56:44.746Z,82.38
2023-02-23T03:02:05.817Z,82.18
2023-02-23T03:07:51.082Z,81.45
2023-02-23T03:13:27.588Z,79.76
2023-02-23T03:19:16.214Z,79.61
2023-02-23T03:24:48.933Z,79.37
2023-02-23T03:30:23.486Z,78.52
2023-02-23T03:35:49.042Z,78.35
2023-02-23T03:41:11.140Z,77.42
2023-02-23T03:46:33.847Z,76.43
2023-02-23T03:51:56.948Z,75.78
2023-02-23T03:57:19.091Z,75.01
2023-02-23T04:02:41.374Z,75.19
2023-02-23T04:08:05.024Z,74.68
2023-02-23T04:13:15.303Z,74.37
2023-02-23T04:18:24.153Z,74.07
2023-02-23T04:23:27.965Z,73.72
2023-02-23T04:28:30.699Z,74.18
2023-02-23T04:33:33.467Z,73.35
2023-02-23T04:38:36.277Z,73.08
2023-02-23T04:43:39.057Z,72.53
2023-02-23T04:48:41.738Z,71.58
2023-02-23T04:53:44.517Z,71.60
2023-02-23T04:58:47.204Z,71.41
2023-02-23T05:03:50.547Z,71.00
2023-02-23T05:08:53.245Z,70.74
2023-02-23T05:13:56.568Z,70.53
2023-02-23T05:18:59.559Z,69.00
2023-02-23T05:24:02.629Z,68.50
2023-02-23T05:29:06.945Z,68.54
2023-02-23T05:34:10.633Z,67.78
2023-02-23T05:39:13.479Z,67.75
2023-02-23T05:44:16.464Z,67.17
2023-02-23T05:49:19.378Z,66.76
2023-02-23T05:54:22.583Z,66.75
2023-02-23T05:59:26.186Z,66.04
2023-02-23T06:04:28.791Z,64.71
2023-02-23T06:09:31.498Z,65.09
2023-02-23T06:14:35.211Z,64.98
2023-02-23T06:19:37.958Z,64.92
2023-02-23T06:24:40.692Z,63.94
2023-02-23T06:29:43.633Z,63.47
2023-02-23T06:34:46.534Z,63.27
2023-02-23T06:39:49.836Z,63.32
2023-02-23T06:44:52.537Z,63.47
2023-02-23T06:49:55.281Z,64.60
2023-02-23T06:54:58.014Z,64.91
2023-02-23T07:00:02.657Z,64.97
2023-02-23T07:05:10.456Z,65.43
2023-02-23T07:10:13.320Z,65.13
2023-02-23T07:15:18.167Z,65.15
2023-02-23T07:20:20.858Z,65.42
2023-02-23T07:25:23.898Z,66.20
2023-02-23T07:30:26.891Z,65.82
2023-02-23T07:35:29.599Z,66.06
2023-02-23T07:40:32.616Z,66.71
2023-02-23T07:45:35.668Z,66.68
2023-02-23T07:50:40.760Z,66.85
2023-02-23T07:55:43.690Z,66.99
2023-02-23T08:00:46.388Z,67.09
2023-02-23T08:05:49.073Z,66.66
2023-02-23T08:10:51.855Z,66.15
2023-02-23T08:15:54.728Z,65.65
2023-02-23T08:21:01.998Z,66.10
2023-02-23T08:26:04.859Z,65.77
2023-02-23T08:31:10.563Z,65.02
2023-02-23T08:36:13.582Z,63.20
2023-02-23T08:41:17.245Z,61.83
2023-02-23T08:46:20.960Z,60.85
2023-02-23T08:51:23.920Z,60.95
2023-02-23T08:56:27.359Z,61.37
2023-02-23T09:01:30.123Z,61.57
2023-02-23T09:06:36.145Z,60.47
2023-02-23T09:11:38.836Z,60.80
2023-02-23T09:16:41.569Z,59.97
2023-02-23T09:21:44.866Z,60.50
2023-02-23T09:26:47.865Z,61.53
2023-02-23T09:31:53.408Z,60.88
2023-02-23T09:36:56.115Z,61.09
2023-02-23T09:42:16.816Z,61.76
2023-02-23T09:47:24.182Z,62.54
2023-02-23T09:52:30.884Z,62.77
2023-02-23T09:57:53.791Z,63.39
2023-02-23T10:03:14.686Z,63.45
2023-02-23T10:08:23.138Z,64.12
2023-02-23T10:13:49.068Z,64.41
2023-02-23T10:19:00.961Z,65.50
2023-02-23T10:24:09.855Z,64.99
2023-02-23T10:29:29.893Z,64.66
2023-02-23T10:34:32.712Z,64.74
2023-02-23T10:39:35.694Z,65.03
2023-02-23T10:44:38.388Z,65.89
2023-02-23T10:49:50.312Z,65.57
2023-02-23T10:54:53.506Z,66.94
2023-02-23T11:00:04.379Z,68.15
2023-02-23T11:05:08.461Z,70.17
2023-02-23T11:10:28.351Z,73.51
2023-02-23T11:15:49.898Z,75.54
2023-02-23T11:20:53.804Z,77.83
2023-02-23T11:26:02.361Z,79.85
2023-02-23T11:31:14.887Z,82.06
2023-02-23T11:36:28.362Z,83.48
2023-02-23T11:41:33.204Z,85.00
2023-02-23T11:46:39.521Z,86.50
2023-02-23T11:51:49.669Z,87.28
2023-02-23T11:56:54.446Z,88.19
2023-02-23T12:02:23.298Z,88.14
2023-02-23T12:07:43.488Z,88.61
2023-02-23T12:13:24.697Z,89.80
2023-02-23T12:18:55.299Z,89.50
2023-02-23T12:24:16.425Z,90.52
2023-02-23T12:29:42.952Z,91.01
2023-02-23T12:35:02.613Z,91.28
2023-02-23T12:40:23.591Z,91.73
2023-02-23T12:45:37.428Z,92.59
2023-02-23T12:50:51.812Z,92.12
2023-02-23T12:56:12.359Z,93.34
2023-02-23T13:01:24.946Z,93.23
2023-02-23T13:06:39.496Z,93.68
2023-02-23T13:12:00.222Z,94.31
2023-02-23T13:17:14.891Z,94.58
2023-02-23T13:22:48.594Z,94.53
2023-02-23T13:27:58.434Z,94.74
2023-02-23T13:33:17.948Z,94.90
2023-02-23T13:38:26.680Z,95.11
2023-02-23T13:43:35.943Z,95.16
2023-02-23T13:48:56.235Z,95.10
2023-02-23T13:54:04.574Z,94.98
2023-02-23T13:59:10.111Z,95.37
2023-02-23T14:04:16.751Z,95.33
2023-02-23T14:09:24.150Z,95.39
2023-02-23T14:14:33.414Z,95.65
2023-02-23T14:19:38.393Z,95.90
2023-02-23T14:24:44.213Z,95.64
2023-02-23T14:30:05.634Z,95.84
2023-02-23T14:35:48.087Z,95.66
2023-02-23T14:40:52.265Z,95.39
2023-02-23T14:45:55.686Z,95.04
2023-02-23T14:51:37.403Z,94.65
2023-02-23T14:56:47.463Z,94.78
2023-02-23T15:01:52.002Z,94.71
2023-02-23T15:06:59.466Z,94.41
2023-02-23T15:12:11.998Z,94.25
2023-02-23T15:17:17.441Z,94.56
2023-02-23T15:22:29.208Z,94.43
2023-02-23T15:27:43.177Z,94.75
2023-02-23T15:32:46.426Z,94.50
2023-02-23T15:37:56.577Z,94.34
2023-02-23T15:43:10.024Z,94.68
2023-02-23T15:48:21.251Z,93.83
2023-02-23T15:53:26.797Z,94.11
2023-02-23T15:58:32.359Z,93.82
2023-02-23T16:03:37.884Z,93.23
2023-02-23T16:08:56.634Z,92.54
2023-02-23T16:13:59.401Z,92.58
2023-02-23T16:19:02.281Z,92.03
2023-02-23T16:24:17.606Z,91.82
2023-02-23T16:29:44.829Z,91.60
2023-02-23T16:34:58.280Z,91.27
2023-02-23T16:40:01.816Z,90.88
2023-02-23T16:45:06.150Z,90.58
2023-02-23T16:50:29.812Z,90.21
2023-02-23T16:55:41.892Z,89.41
2023-02-23T17:00:51.437Z,88.90
2023-02-23T17:05:54.664Z,89.11
2023-02-23T17:10:57.807Z,89.91
2023-02-23T17:16:03.857Z,90.43
2023-02-23T17:21:10.114Z,91.08
2023-02-23T17:26:13.117Z,91.22
2023-02-23T17:31:17.026Z,91.80
2023-02-23T17:36:20.012Z,92.01
2023-02-23T17:41:23.136Z,92.95
2023-02-23T17:46:26.352Z,93.23
2023-02-23T17:51:29.121Z,93.21
2023-02-23T17:56:32.094Z,94.15
2023-02-23T18:01:35.107Z,94.12
2023-02-23T18:06:38.023Z,94.65
2023-02-23T18:11:40.782Z,94.87
2023-02-23T18:16:43.697Z,95.82
2023-02-23T18:21:46.624Z,95.96
2023-02-23T18:26:49.406Z,96.46
2023-02-23T18:31:52.803Z,96.79
2023-02-23T18:37:02.719Z,96.85
2023-02-23T18:42:05.845Z,97.09
2023-02-23T18:47:08.761Z,97.28
2023-02-23T18:52:11.497Z,97.84
2023-02-23T18:57:14.216Z,97.67
2023-02-23T19:02:19.169Z,98.16
2023-02-23T19:07:22.092Z,97.91
2023-02-23T19:12:24.865Z,97.97
2023-02-23T19:17:28.943Z,98.66
2023-02-23T19:22:34.508Z,98.57
2023-02-23T19:27:37.522Z,98.67
2023-02-23T19:32:40.529Z,98.52
2023-02-23T19:37:52.352Z,98.47
2023-02-23T19:42:55.199Z,98.63
2023-02-23T19:47:57.943Z,98.49
2023-02-23T19:53:00.685Z,99.44
2023-02-23T19:58:03.451Z,99.36
2023-02-23T20:03:07.293Z,98.73
2023-02-23T20:08:10.381Z,97.17
2023-02-23T20:13:13.091Z,95.76
2023-02-23T20:18:15.854Z,95.35
2023-02-23T20:23:18.875Z,94.05
2023-02-23T20:28:21.766Z,92.89
2023-02-23T20:33:24.587Z,92.93
2023-02-23T20:38:27.385Z,92.76
2023-02-23T20:43:31.206Z,92.52
2023-02-23T20:48:35.209Z,91.25
2023-02-23T20:53:37.879Z,91.10
2023-02-23T20:58:40.634Z,90.80
2023-02-23T21:03:43.597Z,90.22
2023-02-23T21:08:49.216Z,90.33
2023-02-23T21:13:52.684Z,89.54
2023-02-23T21:19:04.423Z,90.20
2023-02-23T21:24:08.027Z,90.88
2023-02-23T21:29:15.238Z,92.18
2023-02-23T21:34:20.634Z,91.44
2023-02-23T21:39:26.841Z,91.71
2023-02-23T21:44:29.642Z,92.89
2023-02-23T21:49:32.376Z,92.92
2023-02-23T21:54:37.328Z,92.80
2023-02-23T21:59:39.988Z,93.58
2023-02-23T22:04:42.653Z,93.82
2023-02-23T22:09:45.392Z,93.47
2023-02-23T22:14:48.546Z,94.00
2023-02-23T22:19:54.181Z,94.19
2023-02-23T22:24:56.950Z,93.64
2023-02-23T22:30:01.759Z,93.92
2023-02-23T22:35:07.540Z,93.69
2023-02-23T22:40:17.189Z,92.93
2023-02-23T22:45:20.685Z,92.20
2023-02-23T22:50:23.372Z,90.87
2023-02-23T22:55:29.677Z,89.18
2023-02-23T23:00:32.913Z,89.00
2023-02-23T23:05:35.947Z,88.38
2023-02-23T23:10:38.651Z,87.83
2023-02-23T23:15:43.042Z,86.31
2023-02-23T23:20:45.700Z,85.44
2023-02-23T23:25:49.245Z,85.51
2023-02-23T23:30:52.575Z,84.29
2023-02-23T23:35:55.385Z,83.60
2023-02-23T23:41:10.314Z,83.18
2023-02-23T23:46:24.907Z,82.40
2023-02-23T23:51:30.887Z,81.39
2023-02-23T23:56:36.104Z,80.53
